createdAt,value
2024-02-19T00:04:08.981Z,4.41
2024-02-19T00:14:11.472Z,4.69
2024-02-19T00:24:14.112Z,4.64
2024-02-19T00:34:16.788Z,4.59
2024-02-19T00:44:19.373Z,4.91
2024-02-19T00:54:21.974Z,4.71
2024-02-19T01:04:24.504Z,4.39
2024-02-19T01:14:27.255Z,3.89
2024-02-19T01:24:29.714Z,4.05
2024-02-19T01:34:32.428Z,4.16
2024-02-19T01:44:37.902Z,4.25
2024-02-19T01:54:41.005Z,4.23
2024-02-19T02:04:43.618Z,4.12
2024-02-19T02:14:46.105Z,4.01
2024-02-19T02:24:48.624Z,3.79
2024-02-19T02:34:51.357Z,3.67
2024-02-19T02:44:53.865Z,3.72
2024-02-19T02:54:56.422Z,3.63
2024-02-19T03:04:59.091Z,3.57
2024-02-19T03:15:01.746Z,3.41
2024-02-19T03:25:05.966Z,3.32
2024-02-19T03:35:11.441Z,3.21
2024-02-19T03:45:14.176Z,3.04
2024-02-19T03:55:16.670Z,3.19
2024-02-19T04:05:19.175Z,3.13
2024-02-19T04:15:21.695Z,3.13
2024-02-19T04:25:25.154Z,2.75
2024-02-19T04:35:27.758Z,2.93
2024-02-19T04:45:30.876Z,2.93
2024-02-19T04:55:33.607Z,2.93
2024-02-19T05:05:36.784Z,2.76
2024-02-19T05:15:39.325Z,3.04
2024-02-19T05:25:41.839Z,3.55
2024-02-19T05:35:44.989Z,3.67
2024-02-19T05:45:47.500Z,3.38
2024-02-19T05:55:50.103Z,3.41
2024-02-19T06:05:53.016Z,3.61
2024-02-19T06:15:55.678Z,3.72
2024-02-19T06:25:58.416Z,4.05
2024-02-19T06:36:01.036Z,4.31
2024-02-19T06:46:04.087Z,4.24
2024-02-19T06:56:09.256Z,4.52
2024-02-19T07:06:11.951Z,4.72
2024-02-19T07:16:14.691Z,4.98
2024-02-19T07:26:17.279Z,5.26
2024-02-19T07:36:20.099Z,5.41
2024-02-19T07:46:23.516Z,5.46
2024-02-19T07:56:26.198Z,5.28
2024-02-19T08:06:29.863Z,5.33
2024-02-19T08:16:32.593Z,5.62
2024-02-19T08:26:35.638Z,5.79
2024-02-19T08:36:38.796Z,6.17
2024-02-19T08:46:41.565Z,6.50
2024-02-19T08:56:45.337Z,6.64
2024-02-19T09:06:48.067Z,6.85
2024-02-19T09:16:50.749Z,7.50
2024-02-19T09:26:54.186Z,7.89
2024-02-19T09:36:56.743Z,8.04
2024-02-19T09:47:05.381Z,7.97
2024-02-19T09:57:11.700Z,8.03
2024-02-19T10:07:20.862Z,8.54
2024-02-19T10:17:25.998Z,8.94
2024-02-19T10:27:32.209Z,10.19
2024-02-19T10:37:37.015Z,9.44
2024-02-19T10:47:40.650Z,9.59
2024-02-19T10:57:54.120Z,9.68
2024-02-19T11:07:58.966Z,10.01
2024-02-19T11:18:17.563Z,10.46
2024-02-19T11:28:20.306Z,10.03
2024-02-19T11:38:23.797Z,9.95
2024-02-19T11:48:29.129Z,9.68
2024-02-19T11:58:32.958Z,9.53
2024-02-19T12:08:43.742Z,9.56
2024-02-19T12:18:47.475Z,9.74
2024-02-19T12:28:50.796Z,10.01
2024-02-19T12:38:54.136Z,10.58
2024-02-19T12:48:59.982Z,11.22
2024-02-19T12:59:03.102Z,11.25
2024-02-19T13:09:07.178Z,11.13
2024-02-19T13:19:10.004Z,11.58
2024-02-19T13:29:12.914Z,12.70
2024-02-19T13:39:16.865Z,12.65
2024-02-19T13:49:20.732Z,12.12
2024-02-19T13:59:25.349Z,11.67
2024-02-19T14:09:28.316Z,11.26
2024-02-19T14:19:31.174Z,10.92
2024-02-19T14:29:33.811Z,10.85
2024-02-19T14:39:37.144Z,10.67
2024-02-19T14:49:40.854Z,10.36
2024-02-19T14:59:43.802Z,10.20
2024-02-19T15:09:47.733Z,10.23
2024-02-19T15:19:50.543Z,9.97
2024-02-19T15:29:54.746Z,9.72
2024-02-19T15:39:57.385Z,9.60
2024-02-19T15:50:01.140Z,9.48
2024-02-19T16:10:12.620Z,9.20
2024-02-19T16:20:15.776Z,9.00
2024-02-19T16:30:18.366Z,8.95
2024-02-19T16:40:26.481Z,8.85
2024-02-19T16:50:29.307Z,8.75
2024-02-19T17:00:32.103Z,8.50
2024-02-19T17:10:35.833Z,8.36
2024-02-19T17:20:39.902Z,8.23
2024-02-19T17:30:44.488Z,8.17
2024-02-19T17:40:47.080Z,8.11
2024-02-19T17:50:51.872Z,8.08
2024-02-19T18:00:54.471Z,8.02
2024-02-19T18:10:58.759Z,7.96
2024-02-19T18:21:01.944Z,7.87
2024-02-19T18:31:06.674Z,7.75
2024-02-19T18:41:10.145Z,7.76
2024-02-19T18:51:12.747Z,7.80
2024-02-19T19:01:15.387Z,7.75
2024-02-19T19:11:18.771Z,7.70
2024-02-19T19:21:21.612Z,7.62
2024-02-19T19:31:24.435Z,7.60
2024-02-19T19:41:27.111Z,7.53
2024-02-19T19:51:29.680Z,7.51
2024-02-19T20:01:36.175Z,7.39
2024-02-19T20:11:38.796Z,7.33
2024-02-19T20:21:41.421Z,7.24
2024-02-19T20:31:43.926Z,7.10
2024-02-19T20:41:46.510Z,6.76
2024-02-19T20:51:49.141Z,6.44
2024-02-19T21:01:51.938Z,6.15
2024-02-19T21:11:54.568Z,5.81
2024-02-19T21:21:57.332Z,5.45
2024-02-19T21:31:59.875Z,5.23
2024-02-19T21:42:02.463Z,5.12
2024-02-19T21:52:05.210Z,5.02
2024-02-19T22:02:07.738Z,4.99
2024-02-19T22:12:10.262Z,4.85
2024-02-19T22:22:12.693Z,4.50
2024-02-19T22:32:15.212Z,4.24
2024-02-19T22:42:17.671Z,4.12
2024-02-19T22:52:20.369Z,3.87
2024-02-19T23:02:22.834Z,3.02
2024-02-19T23:12:25.303Z,3.64
2024-02-19T23:22:28.068Z,3.53
2024-02-19T23:32:30.962Z,3.45
2024-02-19T23:42:33.792Z,3.70
2024-02-19T23:52:36.823Z,4.06
